createdAt,value
2018-11-22T05:58:26.035Z,4.12
2018-11-22T05:59:26.011Z,4.18
2018-11-22T06:00:26.001Z,4.14
2018-11-22T06:01:25.987Z,4.09
2018-11-22T06:02:25.994Z,4.15
2018-11-22T06:03:25.967Z,4.11
2018-11-22T06:04:25.958Z,4.05
2018-11-22T06:05:25.961Z,4.08
2018-11-22T06:06:25.934Z,4.12
2018-11-22T06:07:25.948Z,4.14
2018-11-22T06:08:25.916Z,4.08
2018-11-22T06:09:25.904Z,4.14
2018-11-22T06:10:25.891Z,4.06
2018-11-22T06:11:25.889Z,4.08
2018-11-22T06:12:25.886Z,4.04
2018-11-22T06:13:25.903Z,4.06
2018-11-22T06:14:25.852Z,4.04
2018-11-22T06:15:25.839Z,3.91
2018-11-22T06:16:25.832Z,3.96
2018-11-22T06:17:25.830Z,4.00
2018-11-22T06:18:25.806Z,4.06
2018-11-22T06:19:25.797Z,3.98
2018-11-22T06:20:25.792Z,4.00
2018-11-22T06:21:25.775Z,3.97
2018-11-22T06:22:25.780Z,4.04
2018-11-22T06:23:25.753Z,3.98
2018-11-22T06:24:25.743Z,3.98
2018-11-22T06:25:25.742Z,4.08
2018-11-22T06:26:25.722Z,3.96
2018-11-22T06:27:25.738Z,3.98
2018-11-22T06:28:25.702Z,4.02
2018-11-22T06:29:25.691Z,3.91
2018-11-22T06:30:25.693Z,4.09
2018-11-22T06:31:25.678Z,4.08
2018-11-22T06:32:25.664Z,4.05
2018-11-22T06:33:25.665Z,4.08
2018-11-22T06:34:25.648Z,4.11
2018-11-22T06:35:25.630Z,4.05
2018-11-22T06:36:25.619Z,4.02
2018-11-22T06:37:25.606Z,3.98
2018-11-22T06:38:25.620Z,4.00
2018-11-22T06:39:25.585Z,4.06
2018-11-22T06:40:25.577Z,4.08
2018-11-22T06:41:25.569Z,4.14
2018-11-22T06:42:25.553Z,4.00
2018-11-22T06:43:25.559Z,4.06
2018-11-22T06:44:25.545Z,4.09
2018-11-22T06:45:25.523Z,4.15
2018-11-22T06:46:25.511Z,4.04
2018-11-22T06:47:25.506Z,4.11
2018-11-22T06:48:25.514Z,4.11
2018-11-22T06:49:25.483Z,4.09
2018-11-22T06:50:25.477Z,4.12
2018-11-22T06:51:25.459Z,4.04
2018-11-22T06:52:25.457Z,4.12
2018-11-22T06:53:25.453Z,4.08
2018-11-22T06:54:25.426Z,4.08
2018-11-22T06:55:25.425Z,4.08
2018-11-22T06:56:25.419Z,4.05
2018-11-22T06:57:25.394Z,4.09
2018-11-22T06:58:32.513Z,4.12
2018-11-22T06:59:25.374Z,4.05
2018-11-22T07:00:25.363Z,4.15
2018-11-22T07:01:25.351Z,4.02
2018-11-22T07:02:25.346Z,4.12
2018-11-22T07:03:25.332Z,4.08
2018-11-22T07:04:25.323Z,4.05
2018-11-22T07:05:25.326Z,4.14
2018-11-22T07:06:25.316Z,4.08
2018-11-22T07:07:25.290Z,4.11
2018-11-22T07:08:25.290Z,4.08
2018-11-22T07:09:25.283Z,4.05
2018-11-22T07:10:25.269Z,4.15
2018-11-22T07:11:25.253Z,4.14
2018-11-22T07:12:25.238Z,4.18
2018-11-22T07:13:25.228Z,4.14
2018-11-22T07:14:25.235Z,4.11
2018-11-22T07:15:25.205Z,4.16
2018-11-22T07:16:25.202Z,4.09
2018-11-22T07:17:25.187Z,4.18
2018-11-22T07:18:25.175Z,4.18
2018-11-22T07:19:25.194Z,4.15
2018-11-22T07:20:25.154Z,4.14
2018-11-22T07:21:25.140Z,4.14
2018-11-22T07:22:25.131Z,4.22
2018-11-22T07:23:25.134Z,4.18
2018-11-22T07:24:25.167Z,4.18
2018-11-22T07:25:25.099Z,4.20
2018-11-22T07:26:25.090Z,4.22
2018-11-22T07:27:25.076Z,4.20
2018-11-22T07:28:25.067Z,4.29
2018-11-22T07:29:25.084Z,4.23
2018-11-22T07:30:25.049Z,4.32
2018-11-22T07:31:25.037Z,4.26
2018-11-22T07:32:25.027Z,4.24
2018-11-22T07:33:25.020Z,4.26
2018-11-22T07:34:25.026Z,4.29
2018-11-22T07:35:24.997Z,4.32
2018-11-22T07:36:24.991Z,4.33
2018-11-22T07:37:24.975Z,4.32
2018-11-22T07:38:24.961Z,4.30
2018-11-22T07:39:24.969Z,4.23
2018-11-22T07:40:24.939Z,4.26
2018-11-22T07:41:24.928Z,4.26
2018-11-22T07:42:24.924Z,4.24
2018-11-22T07:43:24.907Z,4.18
2018-11-22T07:44:24.917Z,4.26
2018-11-22T07:45:24.891Z,4.29
2018-11-22T07:46:24.876Z,4.29
2018-11-22T07:47:24.870Z,4.30
2018-11-22T07:48:24.861Z,4.33
2018-11-22T07:49:24.863Z,4.29
2018-11-22T07:50:24.834Z,4.40
2018-11-22T07:51:24.827Z,4.42
2018-11-22T07:52:24.814Z,4.36
2018-11-22T07:53:24.807Z,4.41
2018-11-22T07:54:24.810Z,4.34
2018-11-22T07:55:24.786Z,4.42
2018-11-22T07:56:24.774Z,4.47
2018-11-22T07:57:24.761Z,4.42
2018-11-22T07:58:24.750Z,4.48
2018-11-22T07:59:24.756Z,4.44
2018-11-22T08:00:24.730Z,4.47
2018-11-22T08:01:24.719Z,4.52
2018-11-22T08:02:24.720Z,4.58
2018-11-22T08:03:24.695Z,4.52
2018-11-22T08:04:24.703Z,4.62
2018-11-22T08:05:24.674Z,4.48
2018-11-22T08:06:24.665Z,4.45
2018-11-22T08:07:24.655Z,4.40
2018-11-22T08:08:24.648Z,4.37
2018-11-22T08:09:24.666Z,4.47
2018-11-22T08:10:24.622Z,4.47
2018-11-22T08:11:24.610Z,4.41
2018-11-22T08:12:25.950Z,4.47
2018-11-22T08:13:24.593Z,4.48
2018-11-22T08:14:24.594Z,4.50
2018-11-22T08:15:24.571Z,4.44
2018-11-22T08:16:24.572Z,4.50
2018-11-22T08:17:24.549Z,4.45
2018-11-22T08:18:24.539Z,4.34
2018-11-22T08:19:24.543Z,4.40
2018-11-22T08:20:24.521Z,4.47
2018-11-22T08:21:24.507Z,4.51
2018-11-22T08:22:24.510Z,4.58
2018-11-22T08:23:24.485Z,4.51
2018-11-22T08:24:24.490Z,4.58
2018-11-22T08:25:24.464Z,4.55
2018-11-22T08:26:24.456Z,4.65
2018-11-22T08:27:24.446Z,4.75
2018-11-22T08:28:24.451Z,4.75
2018-11-22T08:29:24.438Z,4.75
2018-11-22T08:30:24.410Z,4.72
2018-11-22T08:31:24.401Z,4.75
2018-11-22T08:32:24.393Z,4.70
2018-11-22T08:33:24.389Z,4.77
2018-11-22T08:34:24.386Z,4.78
2018-11-22T08:35:24.361Z,4.91
2018-11-22T08:36:24.351Z,5.03
2018-11-22T08:37:24.335Z,4.91
2018-11-22T08:38:24.327Z,4.86
2018-11-22T08:39:24.331Z,4.97
2018-11-22T08:40:24.325Z,4.96
2018-11-22T08:41:24.295Z,4.97
2018-11-22T08:42:24.285Z,4.97
2018-11-22T08:43:24.273Z,5.12
2018-11-22T08:44:24.284Z,5.10
2018-11-22T08:45:24.254Z,5.09
2018-11-22T08:46:24.250Z,5.15
2018-11-22T08:47:24.239Z,5.10
2018-11-22T08:48:24.221Z,5.10
2018-11-22T08:49:24.228Z,5.17
2018-11-22T08:50:24.207Z,5.17
2018-11-22T08:51:24.194Z,5.20
2018-11-22T08:52:24.200Z,5.28
2018-11-22T08:53:24.172Z,5.27
2018-11-22T08:54:24.182Z,5.28
2018-11-22T08:55:24.154Z,5.36
2018-11-22T08:56:24.138Z,5.28
2018-11-22T08:57:24.132Z,5.31
2018-11-22T08:58:24.128Z,5.39
2018-11-22T08:59:24.149Z,5.46
2018-11-22T09:00:24.093Z,5.51
2018-11-22T09:01:24.084Z,5.51
2018-11-22T09:02:24.074Z,5.57
2018-11-22T09:03:24.082Z,5.42
2018-11-22T09:04:24.056Z,5.48
2018-11-22T09:05:24.062Z,5.46
2018-11-22T09:06:24.032Z,5.40
2018-11-22T09:07:24.021Z,5.56
2018-11-22T09:08:24.017Z,5.58
2018-11-22T09:09:24.004Z,5.67
2018-11-22T09:10:24.011Z,5.67
2018-11-22T09:11:23.985Z,5.82
2018-11-22T09:12:23.969Z,5.91
2018-11-22T09:13:23.963Z,5.83
2018-11-22T09:14:23.959Z,5.93
2018-11-22T09:15:23.955Z,5.94
2018-11-22T09:16:23.977Z,5.99
2018-11-22T09:17:23.917Z,5.85
2018-11-22T09:18:23.908Z,5.75
2018-11-22T09:19:23.896Z,5.61
2018-11-22T09:20:23.906Z,5.54
2018-11-22T09:21:23.877Z,5.56
2018-11-22T09:22:23.877Z,5.56
2018-11-22T09:23:23.855Z,5.53
2018-11-22T09:24:24.316Z,5.60
2018-11-22T09:25:23.849Z,5.75
2018-11-22T09:26:23.834Z,5.81
2018-11-22T09:27:23.821Z,5.93
2018-11-22T09:28:23.805Z,5.83
2018-11-22T09:29:23.793Z,5.78
2018-11-22T09:30:23.824Z,5.68
2018-11-22T09:31:23.772Z,5.72
2018-11-22T09:32:23.761Z,5.72
2018-11-22T09:33:23.767Z,5.64
2018-11-22T09:34:23.737Z,5.64
2018-11-22T09:35:23.844Z,5.61
2018-11-22T09:36:23.720Z,5.61
2018-11-22T09:37:23.707Z,5.68
2018-11-22T09:38:23.696Z,5.71
2018-11-22T09:39:23.697Z,5.65
2018-11-22T09:40:23.693Z,5.78
2018-11-22T09:41:23.665Z,5.79
2018-11-22T09:42:23.702Z,5.85
2018-11-22T09:43:23.645Z,5.89
2018-11-22T09:44:23.635Z,6.01
2018-11-22T09:45:23.646Z,5.93
2018-11-22T09:46:23.616Z,6.00
2018-11-22T09:47:23.613Z,5.96
2018-11-22T09:48:23.602Z,5.93
2018-11-22T09:49:23.584Z,6.00
2018-11-22T09:50:23.590Z,5.97
2018-11-22T09:51:23.564Z,5.93
2018-11-22T09:52:23.561Z,5.93
2018-11-22T09:53:23.550Z,5.93
2018-11-22T09:54:23.535Z,5.82
2018-11-22T09:55:23.542Z,5.76
2018-11-22T09:56:23.515Z,5.85
2018-11-22T09:57:23.503Z,5.93
2018-11-22T09:58:23.494Z,5.96
2018-11-22T09:59:23.495Z,5.90
2018-11-22T10:00:23.488Z,5.86
2018-11-22T10:01:23.460Z,5.83
2018-11-22T10:02:23.448Z,5.83
2018-11-22T10:03:23.438Z,5.83
2018-11-22T10:04:23.428Z,5.81
2018-11-22T10:05:23.638Z,5.83
2018-11-22T10:06:23.408Z,5.83
2018-11-22T10:07:23.404Z,5.89
2018-11-22T10:08:23.412Z,5.96
2018-11-22T10:09:23.454Z,5.94
2018-11-22T10:10:23.380Z,5.91
2018-11-22T10:11:23.359Z,5.96
2018-11-22T10:12:23.364Z,5.96
2018-11-22T10:13:23.338Z,5.96
2018-11-22T10:14:23.323Z,5.93
2018-11-22T10:15:23.350Z,5.89
2018-11-22T10:16:23.309Z,5.90
2018-11-22T10:17:23.293Z,5.85
2018-11-22T10:18:23.301Z,5.82
2018-11-22T10:19:23.276Z,5.76
2018-11-22T10:20:23.279Z,5.76
2018-11-22T10:21:23.251Z,5.68
2018-11-22T10:22:23.272Z,5.57
2018-11-22T10:23:23.240Z,5.57
2018-11-22T10:24:23.261Z,5.51
2018-11-22T10:25:23.228Z,5.53
2018-11-22T10:26:23.200Z,5.51
2018-11-22T10:27:23.193Z,5.48
2018-11-22T10:28:23.180Z,5.60
2018-11-22T10:29:23.198Z,5.60
2018-11-22T10:30:23.247Z,5.58
2018-11-22T10:31:23.160Z,5.63
2018-11-22T10:32:23.136Z,5.60
2018-11-22T10:33:23.139Z,5.65
2018-11-22T10:34:23.122Z,5.67
2018-11-22T10:35:23.212Z,5.68
2018-11-22T10:36:23.100Z,5.60
2018-11-22T10:37:23.085Z,5.63
2018-11-22T10:38:23.098Z,5.65
2018-11-22T10:39:23.068Z,5.76
2018-11-22T10:40:23.075Z,5.85
2018-11-22T10:41:23.046Z,5.93
2018-11-22T10:42:23.086Z,5.82
2018-11-22T10:43:23.023Z,5.81
2018-11-22T10:44:23.014Z,5.81
2018-11-22T10:45:23.019Z,5.86
2018-11-22T10:46:23.013Z,5.81
2018-11-22T10:47:22.984Z,5.93
2018-11-22T10:48:22.984Z,5.83
2018-11-22T10:49:22.964Z,5.89
2018-11-22T10:50:22.964Z,5.89
2018-11-22T10:51:22.958Z,5.97
2018-11-22T10:52:22.938Z,6.01
2018-11-22T10:53:22.933Z,6.04
2018-11-22T10:54:22.910Z,6.15
2018-11-22T10:55:22.897Z,6.17
2018-11-22T10:56:22.920Z,6.18
2018-11-22T10:57:22.880Z,6.14
2018-11-22T10:58:22.872Z,6.22
2018-11-22T10:59:22.867Z,6.37
2018-11-22T11:00:22.846Z,6.25
2018-11-22T11:01:22.858Z,6.22
2018-11-22T11:02:22.831Z,6.38
2018-11-22T11:03:22.821Z,6.40
2018-11-22T11:04:22.845Z,6.21
2018-11-22T11:05:22.800Z,6.22
2018-11-22T11:06:22.810Z,6.25
2018-11-22T11:07:22.792Z,6.31
2018-11-22T11:08:22.769Z,6.27
2018-11-22T11:09:22.755Z,6.33
2018-11-22T11:10:22.760Z,6.27
2018-11-22T11:11:22.761Z,6.12
2018-11-22T11:12:25.544Z,6.17
2018-11-22T11:13:22.728Z,6.21
2018-11-22T11:14:22.706Z,6.30
2018-11-22T11:15:22.695Z,6.37
2018-11-22T11:16:22.699Z,6.37
2018-11-22T11:17:22.681Z,6.37
2018-11-22T11:18:22.667Z,6.58
2018-11-22T11:19:22.668Z,6.73
2018-11-22T11:20:22.646Z,6.61
2018-11-22T11:21:22.650Z,6.70
2018-11-22T11:22:22.624Z,6.69
2018-11-22T11:23:22.613Z,6.73
2018-11-22T11:24:22.625Z,6.80
2018-11-22T11:25:22.613Z,6.76
2018-11-22T11:26:22.643Z,6.73
2018-11-22T11:27:22.573Z,6.64
2018-11-22T11:28:22.561Z,6.55
2018-11-22T11:29:22.556Z,6.66
2018-11-22T11:30:22.551Z,6.73
2018-11-22T11:31:22.562Z,6.69
2018-11-22T11:32:22.524Z,6.70
2018-11-22T11:33:22.514Z,6.69
2018-11-22T11:34:22.503Z,6.66
2018-11-22T11:35:22.491Z,6.76
2018-11-22T11:36:22.498Z,6.74
2018-11-22T11:37:22.478Z,6.74
2018-11-22T11:38:22.461Z,6.74
2018-11-22T11:39:22.451Z,6.69
2018-11-22T11:40:22.441Z,6.69
2018-11-22T11:41:22.447Z,6.73
2018-11-22T11:42:22.435Z,6.66
2018-11-22T11:43:22.425Z,6.71
2018-11-22T11:44:22.408Z,6.67
2018-11-22T11:45:22.390Z,6.73
2018-11-22T11:46:22.394Z,6.71
2018-11-22T11:47:22.370Z,6.79
2018-11-22T11:48:22.368Z,6.74
2018-11-22T11:49:22.361Z,6.73
2018-11-22T11:50:22.350Z,6.79
2018-11-22T11:51:22.428Z,6.73
2018-11-22T11:52:22.315Z,6.69
2018-11-22T11:53:27.125Z,6.74
2018-11-22T11:54:23.312Z,6.71
2018-11-22T11:55:22.295Z,6.76
2018-11-22T11:56:22.293Z,6.81
2018-11-22T11:57:22.289Z,6.88
2018-11-22T11:58:22.262Z,6.74
2018-11-22T11:59:22.255Z,6.74
2018-11-22T12:00:22.240Z,6.81
2018-11-22T12:01:22.248Z,6.85
2018-11-22T12:02:22.234Z,6.74
2018-11-22T12:03:22.207Z,6.69
2018-11-22T12:04:22.196Z,6.79
2018-11-22T12:05:22.186Z,6.77
2018-11-22T12:06:22.206Z,6.77
2018-11-22T12:07:22.179Z,6.84
2018-11-22T12:08:22.170Z,6.76
2018-11-22T12:09:22.146Z,6.89
2018-11-22T12:10:22.149Z,6.84
2018-11-22T12:11:22.129Z,6.84
2018-11-22T12:12:22.130Z,6.81
2018-11-22T12:13:22.110Z,6.79
2018-11-22T12:14:22.099Z,6.79
2018-11-22T12:15:22.086Z,6.80
2018-11-22T12:16:22.075Z,6.87
2018-11-22T12:17:22.079Z,6.88
2018-11-22T12:18:22.054Z,6.84
2018-11-22T12:19:22.049Z,6.81
2018-11-22T12:20:22.045Z,6.89
2018-11-22T12:21:22.039Z,6.84
2018-11-22T12:22:22.066Z,6.91
2018-11-22T12:23:22.000Z,6.73
2018-11-22T12:24:21.992Z,6.89
2018-11-22T12:25:21.993Z,6.84
2018-11-22T12:26:21.976Z,6.89
2018-11-22T12:27:21.979Z,6.74
2018-11-22T12:28:21.976Z,6.74
2018-11-22T12:29:21.946Z,6.73
2018-11-22T12:30:21.930Z,6.67
2018-11-22T12:31:21.923Z,6.70
2018-11-22T12:32:21.931Z,6.64
2018-11-22T12:33:21.911Z,6.71
2018-11-22T12:34:21.887Z,6.71
2018-11-22T12:35:21.880Z,6.67
2018-11-22T12:36:21.875Z,6.74
2018-11-22T12:37:21.882Z,6.66
2018-11-22T12:38:21.855Z,6.71
2018-11-22T12:39:21.857Z,6.73
2018-11-22T12:40:21.839Z,6.69
2018-11-22T12:41:21.820Z,6.69
2018-11-22T12:42:21.821Z,6.70
2018-11-22T12:43:21.799Z,6.77
2018-11-22T12:44:21.796Z,6.74
2018-11-22T12:45:21.780Z,6.77
2018-11-22T12:46:21.776Z,6.84
2018-11-22T12:47:21.783Z,6.87
2018-11-22T12:48:21.752Z,6.84
2018-11-22T12:49:21.737Z,6.79
2018-11-22T12:50:21.727Z,6.71
2018-11-22T12:51:21.723Z,6.74
2018-11-22T12:52:21.731Z,6.76
2018-11-22T12:53:21.694Z,6.76
2018-11-22T12:54:21.686Z,6.76
2018-11-22T12:55:21.679Z,6.79
2018-11-22T12:56:21.668Z,6.70
2018-11-22T12:57:21.686Z,6.74
2018-11-22T12:58:21.650Z,6.71
2018-11-22T12:59:21.642Z,6.70
2018-11-22T13:00:21.624Z,6.74
2018-11-22T13:01:21.622Z,6.76
2018-11-22T13:02:21.621Z,6.74
2018-11-22T13:03:21.598Z,6.76
2018-11-22T13:04:21.589Z,6.67
2018-11-22T13:05:21.573Z,6.67
2018-11-22T13:06:21.567Z,6.73
2018-11-22T13:07:21.568Z,6.73
2018-11-22T13:08:21.545Z,6.79
2018-11-22T13:09:21.534Z,6.70
2018-11-22T13:10:21.525Z,6.76
2018-11-22T13:11:21.531Z,6.69
2018-11-22T13:12:21.518Z,6.79
2018-11-22T13:13:21.497Z,6.70
2018-11-22T13:14:21.481Z,6.74
2018-11-22T13:15:21.469Z,6.70
2018-11-22T13:16:21.468Z,6.69
2018-11-22T13:17:21.464Z,6.76
2018-11-22T13:18:21.464Z,6.67
2018-11-22T13:19:21.438Z,6.79
2018-11-22T13:20:21.425Z,6.73
2018-11-22T13:21:21.413Z,6.73
2018-11-22T13:22:21.416Z,6.61
2018-11-22T13:23:21.405Z,6.69
2018-11-22T13:24:21.381Z,6.66
2018-11-22T13:25:21.369Z,6.69
2018-11-22T13:26:21.360Z,6.69
2018-11-22T13:27:21.364Z,6.69
2018-11-22T13:28:21.352Z,6.74
2018-11-22T13:29:21.331Z,6.69
2018-11-22T13:30:21.322Z,6.73
2018-11-22T13:31:21.313Z,6.73
2018-11-22T13:32:21.650Z,6.74
2018-11-22T13:33:21.286Z,6.74
2018-11-22T13:34:21.285Z,6.76
2018-11-22T13:35:21.281Z,6.69
2018-11-22T13:36:21.258Z,6.69
2018-11-22T13:37:21.256Z,6.79
2018-11-22T13:38:21.255Z,6.76
2018-11-22T13:39:21.225Z,6.71
2018-11-22T13:40:21.228Z,6.76
2018-11-22T13:41:21.206Z,6.76
2018-11-22T13:42:21.208Z,6.80
2018-11-22T13:43:21.206Z,6.79
2018-11-22T13:44:21.174Z,6.92
2018-11-22T13:45:21.165Z,6.97
2018-11-22T13:46:21.156Z,6.92
2018-11-22T13:47:21.147Z,7.10
2018-11-22T13:48:21.152Z,7.03
2018-11-22T13:49:21.123Z,7.02
2018-11-22T13:50:21.125Z,7.12
2018-11-22T13:51:21.100Z,7.09
2018-11-22T13:52:21.098Z,7.12
2018-11-22T13:53:21.153Z,7.10
2018-11-22T13:54:21.079Z,7.17
2018-11-22T13:55:21.061Z,7.16
2018-11-22T13:56:21.054Z,7.21
2018-11-22T13:57:21.041Z,7.27
2018-11-22T13:58:21.052Z,7.17
2018-11-22T13:59:21.033Z,7.23
2018-11-22T14:00:21.014Z,7.31
2018-11-22T14:01:20.999Z,7.39
2018-11-22T14:02:21.003Z,7.40
2018-11-22T14:03:20.997Z,7.39
2018-11-22T14:04:20.971Z,7.30
2018-11-22T14:05:20.961Z,7.27
2018-11-22T14:06:20.950Z,7.39
2018-11-22T14:07:20.943Z,7.39
2018-11-22T14:08:20.954Z,7.39
2018-11-22T14:09:20.927Z,7.34
2018-11-22T14:10:20.908Z,7.39
2018-11-22T14:11:20.912Z,7.30
2018-11-22T14:12:20.889Z,7.34
2018-11-22T14:13:20.895Z,7.32
2018-11-22T14:14:20.884Z,7.34
2018-11-22T14:15:20.858Z,7.21
2018-11-22T14:16:20.898Z,7.27
2018-11-22T14:17:20.839Z,7.17
2018-11-22T14:18:20.833Z,7.23
2018-11-22T14:19:20.832Z,7.21
2018-11-22T14:20:20.804Z,7.21
2018-11-22T14:21:20.812Z,7.15
2018-11-22T14:22:20.789Z,7.17
2018-11-22T14:23:20.785Z,7.09
2018-11-22T14:24:20.781Z,7.17
2018-11-22T14:25:20.774Z,7.23
2018-11-22T14:26:20.751Z,7.17
2018-11-22T14:27:20.734Z,7.13
2018-11-22T14:28:20.729Z,7.10
2018-11-22T14:29:20.761Z,7.03
2018-11-22T14:30:20.704Z,7.06
2018-11-22T14:31:20.707Z,6.94
2018-11-22T14:32:20.682Z,6.85
2018-11-22T14:33:20.671Z,6.95
2018-11-22T14:34:20.689Z,6.94
2018-11-22T14:35:21.006Z,6.80
2018-11-22T14:36:20.643Z,6.94
2018-11-22T14:37:20.633Z,6.94
2018-11-22T14:38:20.623Z,6.92
2018-11-22T14:39:20.637Z,6.79
2018-11-22T14:40:20.609Z,6.95
2018-11-22T14:41:20.594Z,6.92
2018-11-22T14:42:20.585Z,6.84
2018-11-22T14:43:20.573Z,6.92
2018-11-22T14:44:20.562Z,6.95
2018-11-22T14:45:20.583Z,6.91
2018-11-22T14:46:20.555Z,6.94
2018-11-22T14:47:20.566Z,6.92
2018-11-22T14:48:20.523Z,6.97
2018-11-22T14:49:20.510Z,6.94
2018-11-22T14:50:20.516Z,6.89
2018-11-22T14:51:20.486Z,6.80
2018-11-22T14:52:20.480Z,6.89
2018-11-22T14:53:20.467Z,6.81
2018-11-22T14:54:20.458Z,6.89
2018-11-22T14:55:20.472Z,6.87
2018-11-22T14:56:20.442Z,6.81
2018-11-22T14:57:20.425Z,6.84
2018-11-22T14:58:20.425Z,6.79
2018-11-22T14:59:20.413Z,6.80
2018-11-22T15:00:20.412Z,6.81
2018-11-22T15:01:20.383Z,6.79
2018-11-22T15:02:20.387Z,6.74
2018-11-22T15:03:20.363Z,6.71
2018-11-22T15:04:20.353Z,6.87
2018-11-22T15:05:20.361Z,6.88
2018-11-22T15:06:20.345Z,6.79
2018-11-22T15:07:20.329Z,6.81
2018-11-22T15:08:20.320Z,6.71
2018-11-22T15:09:20.302Z,6.71
2018-11-22T15:10:20.316Z,6.71
2018-11-22T15:11:20.286Z,6.71
2018-11-22T15:12:20.276Z,6.69
2018-11-22T15:13:20.261Z,6.67
2018-11-22T15:14:20.259Z,6.64
2018-11-22T15:15:20.264Z,6.52
2018-11-22T15:16:20.231Z,6.56
2018-11-22T15:17:20.227Z,6.55
2018-11-22T15:18:20.217Z,6.55
2018-11-22T15:19:20.208Z,6.51
2018-11-22T15:20:20.725Z,6.58
2018-11-22T15:21:20.180Z,6.43
2018-11-22T15:22:20.171Z,6.41
2018-11-22T15:23:20.159Z,6.43
2018-11-22T15:24:20.151Z,6.48
2018-11-22T15:25:20.158Z,6.38
2018-11-22T15:26:20.150Z,6.38
2018-11-22T15:27:20.140Z,6.40
2018-11-22T15:28:20.106Z,6.41
2018-11-22T15:29:20.101Z,6.41
2018-11-22T15:30:20.108Z,6.41
2018-11-22T15:31:20.085Z,6.36
2018-11-22T15:32:20.068Z,6.40
2018-11-22T15:33:20.054Z,6.36
2018-11-22T15:34:20.048Z,6.37
2018-11-22T15:35:20.055Z,6.28
2018-11-22T15:36:20.037Z,6.22
2018-11-22T15:37:20.018Z,6.31
2018-11-22T15:38:20.002Z,6.25
2018-11-22T15:39:20.003Z,6.19
2018-11-22T15:40:20.007Z,6.18
2018-11-22T15:41:19.974Z,6.18
2018-11-22T15:42:19.972Z,6.19
2018-11-22T15:43:19.959Z,6.09
2018-11-22T15:44:19.945Z,6.09
2018-11-22T15:45:19.960Z,6.11
2018-11-22T15:46:19.921Z,6.04
2018-11-22T15:47:19.916Z,6.08
2018-11-22T15:48:19.908Z,6.12
2018-11-22T15:49:19.891Z,6.01
2018-11-22T15:50:19.894Z,6.01
2018-11-22T15:51:19.889Z,6.00
2018-11-22T15:52:19.860Z,6.04
2018-11-22T15:53:19.852Z,6.04
2018-11-22T15:54:19.849Z,6.00
2018-11-22T15:55:21.112Z,6.00
2018-11-22T15:56:19.838Z,5.96
2018-11-22T15:57:19.818Z,5.86
2018-11-22T15:58:19.800Z,6.04
2018-11-22T15:59:19.787Z,5.96
2018-11-22T16:00:19.779Z,5.94
2018-11-22T16:01:19.784Z,5.90
2018-11-22T16:02:19.774Z,5.91
2018-11-22T16:03:19.752Z,6.01
2018-11-22T16:04:19.736Z,5.83
2018-11-22T16:05:19.725Z,5.86
2018-11-22T16:06:19.729Z,5.83
2018-11-22T16:07:19.718Z,5.83
2018-11-22T16:08:19.701Z,5.76
2018-11-22T16:09:19.682Z,5.72
2018-11-22T16:10:22.083Z,5.71
2018-11-22T16:11:20.685Z,5.68
2018-11-22T16:12:19.663Z,5.60
2018-11-22T16:13:19.647Z,5.54
2018-11-22T16:14:19.634Z,5.60
2018-11-22T16:15:19.637Z,5.58
2018-11-22T16:16:19.631Z,5.56
2018-11-22T16:17:19.609Z,5.49
2018-11-22T16:18:19.599Z,5.56
2018-11-22T16:19:19.579Z,5.48
2018-11-22T16:20:19.567Z,5.49
2018-11-22T16:21:19.577Z,5.51
2018-11-22T16:22:19.564Z,5.48
2018-11-22T16:23:19.540Z,5.56
2018-11-22T16:24:19.544Z,5.56
2018-11-22T16:25:19.522Z,5.51
2018-11-22T16:26:19.529Z,5.46
2018-11-22T16:27:19.537Z,5.38
2018-11-22T16:28:19.527Z,5.45
2018-11-22T16:29:19.474Z,5.39
2018-11-22T16:30:19.465Z,5.43
2018-11-22T16:31:19.471Z,5.39
2018-11-22T16:32:19.448Z,5.43
2018-11-22T16:33:19.489Z,5.38
2018-11-22T16:34:19.427Z,5.38
2018-11-22T16:35:19.453Z,5.31
2018-11-22T16:36:19.417Z,5.33
2018-11-22T16:37:19.405Z,5.33
2018-11-22T16:38:19.414Z,5.30
2018-11-22T16:39:19.376Z,5.27
2018-11-22T16:40:19.361Z,5.31
2018-11-22T16:41:19.366Z,5.36
2018-11-22T16:42:19.342Z,5.27
2018-11-22T16:43:19.331Z,5.20
2018-11-22T16:44:19.326Z,5.24
2018-11-22T16:45:19.310Z,5.30
2018-11-22T16:46:19.320Z,5.30
2018-11-22T16:47:19.291Z,5.30
2018-11-22T16:48:19.275Z,5.20
2018-11-22T16:49:19.269Z,5.28
2018-11-22T16:50:19.254Z,5.20
2018-11-22T16:51:19.268Z,5.17
2018-11-22T16:52:19.253Z,5.25
2018-11-22T16:53:19.223Z,5.13
2018-11-22T16:54:19.211Z,5.21
2018-11-22T16:55:19.206Z,5.20
2018-11-22T16:56:19.209Z,5.18
2018-11-22T16:57:19.187Z,5.13
2018-11-22T16:58:19.173Z,5.15
2018-11-22T16:59:19.171Z,5.13
2018-11-22T17:00:19.157Z,5.09
2018-11-22T17:01:19.166Z,5.00
2018-11-22T17:02:19.132Z,4.99
2018-11-22T17:03:19.128Z,5.02
2018-11-22T17:04:19.108Z,5.03
2018-11-22T17:05:19.111Z,4.97
2018-11-22T17:06:19.121Z,5.00
2018-11-22T17:07:19.092Z,4.96
2018-11-22T17:08:19.065Z,5.04
2018-11-22T17:09:19.058Z,5.03
2018-11-22T17:10:19.044Z,4.99
2018-11-22T17:11:19.033Z,5.00
2018-11-22T17:12:19.043Z,4.99
2018-11-22T17:13:19.014Z,4.94
2018-11-22T17:14:19.007Z,4.91
2018-11-22T17:15:19.004Z,4.96
2018-11-22T17:16:18.979Z,4.92
2018-11-22T17:17:18.986Z,4.91
2018-11-22T17:18:18.959Z,4.92
2018-11-22T17:19:18.958Z,4.92
2018-11-22T17:20:18.942Z,4.82
2018-11-22T17:21:18.928Z,4.84
2018-11-22T17:22:18.932Z,4.84
2018-11-22T17:23:18.905Z,4.77
2018-11-22T17:24:18.901Z,4.75
2018-11-22T17:25:18.891Z,4.70
2018-11-22T17:26:18.881Z,4.82
2018-11-22T17:27:18.885Z,4.77
2018-11-22T17:28:18.866Z,4.82
2018-11-22T17:29:18.857Z,4.82
2018-11-22T17:30:18.837Z,4.67
2018-11-22T17:31:18.827Z,4.77
2018-11-22T17:32:18.835Z,4.72
2018-11-22T17:33:18.800Z,4.63
2018-11-22T17:34:18.802Z,4.60
2018-11-22T17:35:18.784Z,4.62
2018-11-22T17:36:18.768Z,4.59
2018-11-22T17:37:18.776Z,4.62
2018-11-22T17:38:18.748Z,4.60
2018-11-22T17:39:18.739Z,4.62
2018-11-22T17:40:18.729Z,4.62
2018-11-22T17:41:18.728Z,4.52
2018-11-22T17:42:18.729Z,4.45
2018-11-22T17:43:18.698Z,4.54
2018-11-22T17:44:18.686Z,4.59
2018-11-22T17:45:18.673Z,4.48
2018-11-22T17:46:18.663Z,4.47
2018-11-22T17:47:18.671Z,4.44
2018-11-22T17:48:18.643Z,4.41
2018-11-22T17:49:18.637Z,4.42
2018-11-22T17:50:18.660Z,4.36
2018-11-22T17:51:18.613Z,4.36
2018-11-22T17:52:18.622Z,4.37
2018-11-22T17:53:18.603Z,4.34
2018-11-22T17:54:18.579Z,4.34
2018-11-22T17:55:18.579Z,4.32
2018-11-22T17:56:18.563Z,4.32
2018-11-22T17:57:18.563Z,4.30
2018-11-22T17:58:18.540Z,4.30
2018-11-22T17:59:18.560Z,4.33
2018-11-22T18:00:18.516Z,4.29
2018-11-22T18:01:18.530Z,4.24
2018-11-22T18:02:18.508Z,4.24
2018-11-22T18:03:18.486Z,4.16
2018-11-22T18:04:18.498Z,4.16
2018-11-22T18:05:18.467Z,4.22
2018-11-22T18:06:18.453Z,4.15
2018-11-22T18:07:18.457Z,4.20
2018-11-22T18:08:18.430Z,4.22
2018-11-22T18:09:18.421Z,4.26
2018-11-22T18:10:18.418Z,4.14
2018-11-22T18:11:18.418Z,4.22
2018-11-22T18:12:18.410Z,4.20
2018-11-22T18:13:18.461Z,4.22
2018-11-22T18:14:18.369Z,4.15
2018-11-22T18:15:18.360Z,4.18
2018-11-22T18:16:18.409Z,4.18
2018-11-22T18:17:18.349Z,4.08
2018-11-22T18:18:18.330Z,4.15
2018-11-22T18:19:18.323Z,4.09
2018-11-22T18:20:18.303Z,4.09
2018-11-22T18:21:18.294Z,4.11
2018-11-22T18:22:18.306Z,4.12
2018-11-22T18:23:18.297Z,4.11
2018-11-22T18:24:18.262Z,4.04
2018-11-22T18:25:18.255Z,4.05
2018-11-22T18:26:18.240Z,4.00
2018-11-22T18:27:18.248Z,4.02
2018-11-22T18:28:18.226Z,4.06
2018-11-22T18:29:18.214Z,4.00
2018-11-22T18:30:18.205Z,4.02
2018-11-22T18:31:18.204Z,4.05
2018-11-22T18:32:18.207Z,3.98
2018-11-22T18:33:18.178Z,4.04
2018-11-22T18:34:18.170Z,3.96
2018-11-22T18:35:18.148Z,4.00
2018-11-22T18:36:18.151Z,4.00
2018-11-22T18:37:18.169Z,3.94
2018-11-22T18:38:18.116Z,3.91
2018-11-22T18:39:18.113Z,3.91
2018-11-22T18:40:18.111Z,3.96
2018-11-22T18:41:18.084Z,3.93
2018-11-22T18:42:18.092Z,3.88
2018-11-22T18:43:18.088Z,3.90
2018-11-22T18:44:18.094Z,3.78
2018-11-22T18:45:18.042Z,3.98
2018-11-22T18:46:18.041Z,3.84
2018-11-22T18:47:18.023Z,3.83
2018-11-22T18:48:18.026Z,3.80
2018-11-22T18:49:17.999Z,3.86
2018-11-22T18:50:18.020Z,3.83
2018-11-22T18:51:17.992Z,3.79
2018-11-22T18:52:17.967Z,3.80
2018-11-22T18:53:18.003Z,3.80
2018-11-22T18:54:17.948Z,3.84
2018-11-22T18:55:17.963Z,3.86
2018-11-22T18:56:17.931Z,3.84
2018-11-22T18:57:17.919Z,3.83
2018-11-22T18:58:17.939Z,3.80
2018-11-22T18:59:17.929Z,3.79
2018-11-22T19:00:17.893Z,3.80
2018-11-22T19:01:17.897Z,3.86
2018-11-22T19:02:17.861Z,3.84
2018-11-22T19:03:17.886Z,3.83
2018-11-22T19:04:17.842Z,3.70
2018-11-22T19:05:17.833Z,3.75
2018-11-22T19:06:17.850Z,3.80
2018-11-22T19:07:17.822Z,3.75
2018-11-22T19:08:17.851Z,3.75
2018-11-22T19:09:17.789Z,3.73
2018-11-22T19:10:17.777Z,3.72
2018-11-22T19:11:17.774Z,3.70
2018-11-22T19:12:17.779Z,3.68
2018-11-22T19:13:17.809Z,3.68
2018-11-22T19:14:17.746Z,3.70
2018-11-22T19:15:17.739Z,3.58
2018-11-22T19:16:17.736Z,3.57